createdAt,value
2019-02-04T00:00:37.936Z,80.28
2019-02-04T00:03:06.536Z,76.59
2019-02-04T00:05:34.556Z,81.35
2019-02-04T00:08:02.638Z,82.11
2019-02-04T00:10:30.589Z,82.43
2019-02-04T00:12:59.206Z,81.01
2019-02-04T00:15:27.502Z,82.37
2019-02-04T00:17:55.475Z,83.04
2019-02-04T00:20:23.460Z,83.22
2019-02-04T00:22:51.457Z,82.44
2019-02-04T00:25:21.560Z,75.41
2019-02-04T00:27:49.299Z,79.01
2019-02-04T00:30:17.413Z,80.18
2019-02-04T00:32:45.451Z,81.35
2019-02-04T00:35:13.505Z,82.36
2019-02-04T00:37:41.559Z,82.52
2019-02-04T00:40:12.772Z,78.83
2019-02-04T00:42:41.891Z,80.54
2019-02-04T00:45:09.892Z,82.09
2019-02-04T00:47:37.952Z,79.82
2019-02-04T00:50:06.496Z,80.66
2019-02-04T00:52:36.592Z,78.16
2019-02-04T00:55:05.028Z,77.50
2019-02-04T00:57:33.002Z,75.33
2019-02-04T01:00:01.451Z,79.22
2019-02-04T01:02:29.417Z,80.97
2019-02-04T01:04:57.475Z,82.57
2019-02-04T01:07:25.480Z,83.06
2019-02-04T01:09:53.509Z,75.23
2019-02-04T01:12:21.561Z,77.04
2019-02-04T01:14:49.583Z,81.46
2019-02-04T01:17:17.609Z,82.47
2019-02-04T01:19:45.615Z,82.72
2019-02-04T01:22:13.635Z,81.53
2019-02-04T01:24:41.614Z,78.30
2019-02-04T01:27:09.653Z,82.32
2019-02-04T01:29:37.655Z,81.31
2019-02-04T01:32:05.707Z,82.59
2019-02-04T01:34:33.741Z,82.89
2019-02-04T01:37:01.755Z,82.96
2019-02-04T01:39:29.757Z,83.33
2019-02-04T01:41:57.749Z,83.43
2019-02-04T01:44:25.777Z,83.43
2019-02-04T01:46:54.048Z,80.51
2019-02-04T01:49:22.101Z,82.45
2019-02-04T01:51:50.151Z,83.26
2019-02-04T01:54:18.161Z,83.45
2019-02-04T01:56:46.150Z,83.56
2019-02-04T01:59:14.210Z,83.86
2019-02-04T02:01:42.273Z,83.97
2019-02-04T02:04:10.302Z,83.76
2019-02-04T02:06:38.270Z,81.06
2019-02-04T02:09:09.875Z,83.30
2019-02-04T02:11:37.922Z,83.51
2019-02-04T02:14:06.170Z,83.82
2019-02-04T02:16:34.125Z,84.10
2019-02-04T02:19:02.226Z,83.97
2019-02-04T02:21:30.205Z,83.93
2019-02-04T02:23:58.175Z,84.09
2019-02-04T02:26:26.284Z,84.22
2019-02-04T02:28:54.308Z,83.30
2019-02-04T02:34:16.585Z,83.59
2019-02-04T02:36:44.644Z,83.40
2019-02-04T02:39:12.698Z,84.05
2019-02-04T02:41:40.732Z,83.89
2019-02-04T02:44:08.914Z,83.90
2019-02-04T02:46:37.175Z,84.19
2019-02-04T02:49:05.349Z,84.49
2019-02-04T02:51:33.363Z,84.33
2019-02-04T02:54:01.393Z,84.64
2019-02-04T02:56:29.431Z,84.16
2019-02-04T02:58:57.449Z,84.54
2019-02-04T03:01:25.449Z,84.70
2019-02-04T03:03:53.830Z,84.75
2019-02-04T03:06:21.910Z,84.47
2019-02-04T03:08:49.934Z,84.37
2019-02-04T03:11:17.974Z,84.44
2019-02-04T03:13:45.973Z,84.55
2019-02-04T03:16:14.335Z,84.65
2019-02-04T03:18:42.414Z,84.54
2019-02-04T03:21:10.507Z,84.39
2019-02-04T03:23:38.573Z,84.66
2019-02-04T03:26:06.562Z,84.80
2019-02-04T03:28:34.558Z,84.58
2019-02-04T03:31:02.584Z,84.49
2019-02-04T03:36:17.569Z,84.63
2019-02-04T03:38:45.538Z,84.69
2019-02-04T03:41:13.678Z,84.71
2019-02-04T03:43:43.396Z,84.43
2019-02-04T03:46:11.789Z,84.39
2019-02-04T03:48:39.810Z,84.41
2019-02-04T03:51:07.814Z,84.28
2019-02-04T03:53:35.942Z,84.32
2019-02-04T03:56:03.932Z,84.24
2019-02-04T03:58:33.973Z,82.07
2019-02-04T04:01:01.933Z,83.07
2019-02-04T04:03:29.981Z,83.96
2019-02-04T04:05:58.033Z,84.30
2019-02-04T04:08:26.070Z,84.08
2019-02-04T04:10:54.081Z,84.02
2019-02-04T04:13:22.078Z,83.44
2019-02-04T04:15:50.078Z,83.78
2019-02-04T04:18:18.153Z,84.05
2019-02-04T04:20:46.178Z,83.94
2019-02-04T04:23:14.196Z,84.02
2019-02-04T04:25:42.203Z,84.13
2019-02-04T04:28:10.232Z,78.78
2019-02-04T04:30:38.477Z,83.35
2019-02-04T04:33:06.472Z,83.80
2019-02-04T04:35:34.503Z,84.02
2019-02-04T04:38:02.532Z,84.50
2019-02-04T04:40:30.552Z,84.87
2019-02-04T04:42:58.864Z,84.95
2019-02-04T04:45:26.866Z,84.74
2019-02-04T04:47:55.006Z,84.69
2019-02-04T04:50:23.053Z,84.82
2019-02-04T04:52:51.079Z,84.67
2019-02-04T04:55:21.213Z,84.92
2019-02-04T04:57:49.239Z,85.03
2019-02-04T05:00:19.785Z,84.99
2019-02-04T05:02:47.790Z,84.94
2019-02-04T05:05:15.889Z,84.39
2019-02-04T05:07:43.968Z,83.96
2019-02-04T05:10:14.319Z,83.08
2019-02-04T05:12:42.431Z,82.07
2019-02-04T05:15:13.227Z,83.65
2019-02-04T05:17:40.391Z,83.86
2019-02-04T05:20:09.150Z,83.37
2019-02-04T05:22:37.140Z,83.97
2019-02-04T05:25:05.337Z,83.49
2019-02-04T05:27:33.391Z,83.66
2019-02-04T05:30:01.555Z,84.28
2019-02-04T05:32:31.357Z,83.79
2019-02-04T05:34:59.364Z,83.56
2019-02-04T05:37:27.484Z,81.40
2019-02-04T05:39:55.604Z,83.79
2019-02-04T05:42:26.718Z,83.57
2019-02-04T05:44:54.769Z,83.34
2019-02-04T05:47:24.540Z,83.47
2019-02-04T05:49:52.572Z,83.73
2019-02-04T05:52:20.618Z,82.04
2019-02-04T05:54:48.666Z,82.55
2019-02-04T05:57:16.765Z,80.94
2019-02-04T05:59:44.769Z,77.10
2019-02-04T06:02:13.143Z,74.17
2019-02-04T06:04:41.283Z,80.85
2019-02-04T06:07:09.299Z,78.63
2019-02-04T06:09:37.399Z,82.62
2019-02-04T06:12:05.395Z,82.80
2019-02-04T06:14:33.427Z,82.88
2019-02-04T06:17:01.521Z,83.00
2019-02-04T06:19:29.879Z,82.76
2019-02-04T06:21:57.851Z,83.15
2019-02-04T06:24:25.919Z,82.60
2019-02-04T06:26:53.909Z,82.88
2019-02-04T06:29:21.959Z,81.62
2019-02-04T06:31:50.002Z,82.96
2019-02-04T06:34:18.659Z,82.80
2019-02-04T06:36:46.717Z,82.56
2019-02-04T06:39:14.772Z,82.30
2019-02-04T06:41:42.814Z,82.76
2019-02-04T06:44:10.860Z,82.73
2019-02-04T06:46:38.883Z,82.65
2019-02-04T06:49:12.369Z,82.79
2019-02-04T06:51:36.628Z,82.65
2019-02-04T06:54:04.677Z,82.49
2019-02-04T06:56:32.694Z,82.66
2019-02-04T06:59:00.760Z,82.71
2019-02-04T07:01:28.757Z,82.51
2019-02-04T07:03:56.810Z,77.01
2019-02-04T07:06:25.305Z,81.67
2019-02-04T07:08:53.334Z,82.01
2019-02-04T07:11:21.353Z,82.15
2019-02-04T07:13:49.380Z,82.37
2019-02-04T07:16:17.485Z,81.63
2019-02-04T07:18:45.577Z,80.27
2019-02-04T07:21:13.601Z,81.83
2019-02-04T07:23:42.144Z,81.94
2019-02-04T07:26:10.269Z,74.30
2019-02-04T07:28:38.235Z,80.25
2019-02-04T07:31:06.387Z,81.50
2019-02-04T07:33:34.405Z,81.11
2019-02-04T07:36:03.552Z,80.76
2019-02-04T07:38:31.750Z,79.90
2019-02-04T07:40:59.820Z,80.47
2019-02-04T07:43:27.852Z,80.92
2019-02-04T07:45:56.027Z,80.91
2019-02-04T07:48:24.030Z,80.85
2019-02-04T07:50:52.198Z,79.98
2019-02-04T07:53:20.211Z,81.03
2019-02-04T07:55:48.630Z,80.41
2019-02-04T07:58:16.662Z,80.26
2019-02-04T08:00:44.822Z,80.29
2019-02-04T08:03:15.049Z,80.51
2019-02-04T08:05:42.739Z,80.32
2019-02-04T08:08:10.800Z,79.74
2019-02-04T08:10:38.877Z,80.44
2019-02-04T08:13:06.869Z,79.47
2019-02-04T08:15:37.035Z,78.34
2019-02-04T08:18:05.547Z,73.12
2019-02-04T08:20:33.665Z,77.97
2019-02-04T08:23:01.691Z,78.32
2019-02-04T08:25:29.699Z,77.98
2019-02-04T08:27:58.003Z,77.24
2019-02-04T08:30:28.181Z,75.64
2019-02-04T08:32:56.596Z,75.34
2019-02-04T08:35:24.937Z,75.98
2019-02-04T08:37:52.942Z,75.32
2019-02-04T08:40:20.963Z,71.73
2019-02-04T08:42:49.005Z,74.47
2019-02-04T08:45:16.975Z,72.36
2019-02-04T08:47:45.000Z,73.11
2019-02-04T08:50:15.336Z,71.86
2019-02-04T08:52:43.506Z,71.86
2019-02-04T08:55:11.697Z,72.40
2019-02-04T08:57:39.744Z,71.75
2019-02-04T09:00:09.760Z,71.83
2019-02-04T09:02:37.726Z,71.12
2019-02-04T09:05:05.958Z,71.12
2019-02-04T09:07:33.996Z,71.49
2019-02-04T09:10:02.255Z,70.60
2019-02-04T09:12:30.428Z,70.18
2019-02-04T09:14:58.509Z,69.89
2019-02-04T09:17:26.673Z,71.36
2019-02-04T09:19:54.721Z,68.99
2019-02-04T09:22:22.763Z,67.93
2019-02-04T09:24:50.863Z,70.91
2019-02-04T09:27:18.959Z,67.87
2019-02-04T09:29:47.163Z,67.85
2019-02-04T09:32:15.346Z,68.59
2019-02-04T09:34:45.076Z,66.72
2019-02-04T09:37:13.217Z,69.84
2019-02-04T09:39:41.310Z,67.21
2019-02-04T09:42:09.288Z,68.63
2019-02-04T09:44:37.317Z,70.29
2019-02-04T09:47:05.369Z,69.04
2019-02-04T09:49:33.446Z,64.87
2019-02-04T09:52:01.849Z,69.43
2019-02-04T09:54:29.903Z,69.19
2019-02-04T09:56:58.024Z,69.64
2019-02-04T09:59:26.104Z,67.65
2019-02-04T10:01:54.221Z,67.36
2019-02-04T10:04:22.220Z,68.17
2019-02-04T10:06:50.491Z,69.39
2019-02-04T10:09:18.497Z,64.71
2019-02-04T10:11:46.554Z,67.39
2019-02-04T10:14:14.547Z,69.43
2019-02-04T10:16:42.653Z,64.82
2019-02-04T10:19:10.857Z,67.66
2019-02-04T10:21:38.939Z,68.48
2019-02-04T10:24:06.910Z,63.94
2019-02-04T10:26:35.008Z,63.63
2019-02-04T10:29:02.964Z,65.90
2019-02-04T10:31:31.000Z,68.39
2019-02-04T10:33:59.189Z,64.78
2019-02-04T10:36:27.253Z,65.35
2019-02-04T10:38:55.689Z,68.29
2019-02-04T10:41:23.651Z,62.14
2019-02-04T10:43:51.743Z,62.72
2019-02-04T10:46:19.832Z,68.06
2019-02-04T10:48:48.086Z,66.69
2019-02-04T10:51:16.143Z,67.87
2019-02-04T10:53:44.201Z,67.09
2019-02-04T10:56:12.494Z,62.26
2019-02-04T10:58:40.485Z,64.04
2019-02-04T11:01:08.454Z,65.59
2019-02-04T11:03:36.731Z,61.68
2019-02-04T11:06:04.794Z,61.46
2019-02-04T11:08:32.966Z,64.22
2019-02-04T11:11:01.930Z,68.43
2019-02-04T11:13:29.971Z,68.03
2019-02-04T11:15:58.002Z,68.78
2019-02-04T11:18:25.969Z,68.67
2019-02-04T11:20:58.071Z,61.13
2019-02-04T11:23:23.767Z,68.77
2019-02-04T11:25:51.840Z,68.84
2019-02-04T11:28:20.173Z,69.35
2019-02-04T11:30:51.320Z,62.36
2019-02-04T11:33:19.449Z,69.38
2019-02-04T11:35:47.736Z,65.65
2019-02-04T11:38:15.795Z,65.01
2019-02-04T11:40:45.846Z,68.33
2019-02-04T11:43:13.548Z,68.46
2019-02-04T11:45:41.508Z,69.32
2019-02-04T11:48:10.616Z,67.44
2019-02-04T11:50:38.818Z,64.93
2019-02-04T11:53:06.979Z,68.38
2019-02-04T11:55:34.963Z,68.91
2019-02-04T11:58:03.275Z,68.24
2019-02-04T12:00:31.281Z,65.73
2019-02-04T12:03:00.489Z,68.70
2019-02-04T12:05:28.941Z,66.21
2019-02-04T12:07:57.049Z,69.21
2019-02-04T12:10:30.914Z,63.27
2019-02-04T12:12:59.217Z,68.60
2019-02-04T12:15:27.217Z,68.29
2019-02-04T12:17:55.215Z,60.12
2019-02-04T12:20:23.329Z,68.56
2019-02-04T12:22:51.396Z,68.02
2019-02-04T12:25:22.939Z,62.50
2019-02-04T12:27:51.034Z,67.70
2019-02-04T12:30:27.038Z,63.33
2019-02-04T12:32:55.386Z,61.17
2019-02-04T12:35:23.398Z,63.91
2019-02-04T12:37:51.466Z,60.84
2019-02-04T12:40:19.468Z,65.48
2019-02-04T12:42:48.050Z,65.22
2019-02-04T12:45:21.793Z,57.76
2019-02-04T12:47:49.885Z,67.43
2019-02-04T12:50:17.910Z,63.58
2019-02-04T12:52:46.287Z,62.90
2019-02-04T12:55:16.967Z,67.17
2019-02-04T12:57:45.343Z,67.10
2019-02-04T13:00:16.434Z,66.04
2019-02-04T13:02:44.677Z,66.76
2019-02-04T13:05:16.944Z,65.83
2019-02-04T13:07:46.701Z,66.96
2019-02-04T13:10:15.966Z,58.58
2019-02-04T13:12:44.017Z,59.53
2019-02-04T13:15:14.612Z,67.26
2019-02-04T13:17:42.677Z,58.94
2019-02-04T13:20:11.648Z,67.67
2019-02-04T13:22:39.790Z,57.88
2019-02-04T13:25:09.151Z,66.48
2019-02-04T13:27:37.647Z,67.13
2019-02-04T13:30:06.442Z,67.28
2019-02-04T13:32:34.525Z,65.20
2019-02-04T13:35:02.665Z,64.20
2019-02-04T13:37:30.724Z,59.26
2019-02-04T13:40:02.922Z,64.59
2019-02-04T13:42:31.402Z,65.43
2019-02-04T13:44:59.551Z,61.99
2019-02-04T13:47:27.540Z,56.91
2019-02-04T13:49:55.561Z,66.41
2019-02-04T13:52:23.686Z,66.55
2019-02-04T13:54:51.731Z,61.90
2019-02-04T13:57:21.890Z,56.14
2019-02-04T13:59:49.922Z,67.20
2019-02-04T14:02:23.772Z,59.82
2019-02-04T14:04:51.825Z,65.07
2019-02-04T14:07:21.432Z,59.56
2019-02-04T14:09:49.697Z,68.08
2019-02-04T14:12:20.775Z,68.08
2019-02-04T14:14:48.876Z,66.53
2019-02-04T14:17:16.852Z,56.77
2019-02-04T14:19:44.891Z,66.57
2019-02-04T14:22:12.912Z,67.97
2019-02-04T14:24:40.957Z,61.96
2019-02-04T14:27:09.205Z,65.00
2019-02-04T14:29:37.253Z,66.19
2019-02-04T14:32:05.346Z,67.28
2019-02-04T14:34:33.812Z,68.86
2019-02-04T14:37:02.253Z,70.04
2019-02-04T14:39:30.584Z,69.27
2019-02-04T14:41:58.964Z,69.94
2019-02-04T14:44:57.790Z,70.09
2019-02-04T14:47:49.742Z,59.82
2019-02-04T14:50:56.000Z,63.76
2019-02-04T14:53:53.256Z,62.89
2019-02-04T14:56:44.920Z,70.24
2019-02-04T14:59:50.065Z,69.98
2019-02-04T15:03:19.700Z,64.77
2019-02-04T15:06:37.843Z,61.28
2019-02-04T15:09:50.476Z,68.76
2019-02-04T15:13:08.321Z,69.63
2019-02-04T15:16:01.397Z,70.37
2019-02-04T15:19:00.718Z,66.49
2019-02-04T15:22:05.737Z,70.57
2019-02-04T15:25:23.427Z,69.44
2019-02-04T15:28:11.475Z,65.89
2019-02-04T15:31:05.847Z,64.38
2019-02-04T15:34:18.235Z,71.58
2019-02-04T15:37:00.737Z,68.32
2019-02-04T15:40:07.007Z,63.16
2019-02-04T15:43:04.773Z,70.59
2019-02-04T15:46:17.209Z,67.55
2019-02-04T15:49:26.426Z,61.44
2019-02-04T15:51:57.864Z,70.63
2019-02-04T15:54:25.896Z,65.66
2019-02-04T15:56:55.341Z,64.66
2019-02-04T15:59:23.369Z,66.88
2019-02-04T16:01:51.921Z,66.82
2019-02-04T16:04:27.866Z,70.31
2019-02-04T16:06:55.960Z,64.35
2019-02-04T16:09:23.995Z,69.96
2019-02-04T16:11:51.982Z,70.23
2019-02-04T16:16:55.856Z,69.96
2019-02-04T16:19:24.557Z,64.79
2019-02-04T16:21:53.111Z,65.54
2019-02-04T16:24:21.610Z,69.61
2019-02-04T16:26:49.710Z,68.25
2019-02-04T16:29:25.075Z,67.61
2019-02-04T16:31:54.152Z,62.45
2019-02-04T16:34:24.125Z,66.81
2019-02-04T16:36:52.113Z,64.04
2019-02-04T16:39:20.363Z,65.76
2019-02-04T16:41:48.405Z,67.48
2019-02-04T16:44:16.519Z,68.85
2019-02-04T16:46:44.819Z,68.03
2019-02-04T16:49:12.971Z,68.31
2019-02-04T16:51:41.080Z,65.18
2019-02-04T16:54:09.100Z,61.63
2019-02-04T16:56:37.162Z,61.64
2019-02-04T16:59:05.305Z,62.78
2019-02-04T17:01:33.466Z,61.33
2019-02-04T17:04:01.794Z,68.01
2019-02-04T17:06:30.119Z,68.31
2019-02-04T17:08:58.181Z,65.34
2019-02-04T17:11:26.220Z,68.14
2019-02-04T17:13:54.336Z,62.05
2019-02-04T17:16:22.419Z,66.39
2019-02-04T17:18:50.792Z,66.98
2019-02-04T17:21:19.006Z,67.12
2019-02-04T17:23:47.599Z,64.00
2019-02-04T17:26:15.940Z,65.82
2019-02-04T17:28:45.326Z,62.07
2019-02-04T17:31:13.960Z,64.01
2019-02-04T17:33:42.046Z,67.19
2019-02-04T17:36:10.301Z,67.62
2019-02-04T17:38:38.567Z,65.57
2019-02-04T17:41:06.959Z,63.78
2019-02-04T17:43:35.051Z,67.28
2019-02-04T17:46:03.265Z,67.37
2019-02-04T17:48:31.341Z,64.88
2019-02-04T17:50:59.964Z,63.64
2019-02-04T17:53:34.391Z,64.60
2019-02-04T17:55:58.091Z,66.03
2019-02-04T17:58:26.490Z,65.21
2019-02-04T18:00:55.297Z,67.26
2019-02-04T18:03:35.598Z,68.53
2019-02-04T18:06:04.208Z,66.54
2019-02-04T18:08:32.266Z,67.44
2019-02-04T18:11:00.412Z,66.97
2019-02-04T18:13:28.776Z,66.88
2019-02-04T18:15:57.340Z,65.00
2019-02-04T18:18:25.689Z,68.25
2019-02-04T18:20:54.017Z,64.38
2019-02-04T18:23:25.128Z,67.35
2019-02-04T18:25:53.618Z,66.47
2019-02-04T18:28:22.832Z,63.82
2019-02-04T18:30:51.194Z,63.80
2019-02-04T18:33:19.549Z,66.77
2019-02-04T18:35:47.722Z,65.37
2019-02-04T18:38:16.240Z,62.42
2019-02-04T18:40:46.115Z,67.93
2019-02-04T18:43:14.357Z,66.07
2019-02-04T18:45:43.830Z,65.15
2019-02-04T18:48:12.697Z,65.53
2019-02-04T18:50:42.626Z,65.04
2019-02-04T18:53:11.948Z,63.38
2019-02-04T18:56:00.974Z,66.06
2019-02-04T18:58:33.035Z,66.37
2019-02-04T19:01:02.231Z,62.92
2019-02-04T19:03:31.864Z,62.67
2019-02-04T19:06:00.946Z,65.92
2019-02-04T19:08:31.709Z,63.28
2019-02-04T19:11:00.988Z,65.89
2019-02-04T19:13:36.275Z,60.86
2019-02-04T19:16:01.441Z,61.44
2019-02-04T19:18:31.340Z,67.51
2019-02-04T19:21:00.750Z,63.98
2019-02-04T19:23:29.901Z,66.15
2019-02-04T19:25:59.534Z,62.86
2019-02-04T19:31:39.782Z,63.24
2019-02-04T19:34:09.018Z,63.65
2019-02-04T19:36:38.370Z,64.79
2019-02-04T19:39:08.850Z,63.70
2019-02-04T19:41:37.772Z,60.97
2019-02-04T19:44:07.277Z,61.63
2019-02-04T19:46:36.248Z,64.03
2019-02-04T19:49:06.067Z,66.99
2019-02-04T19:51:37.459Z,65.13
2019-02-04T19:54:07.735Z,63.72
2019-02-04T19:56:36.721Z,66.15
2019-02-04T19:59:05.448Z,66.25
2019-02-04T20:01:35.106Z,64.55
2019-02-04T20:04:04.255Z,60.97
2019-02-04T20:06:33.847Z,66.36
2019-02-04T20:09:05.283Z,62.19
2019-02-04T20:11:34.315Z,65.43
2019-02-04T20:14:03.675Z,65.95
2019-02-04T20:16:34.088Z,65.99
2019-02-04T20:19:04.444Z,62.13
2019-02-04T20:24:11.309Z,66.05
2019-02-04T20:26:41.067Z,64.32
2019-02-04T20:29:10.725Z,63.69
2019-02-04T20:31:41.220Z,62.89
2019-02-04T20:34:10.265Z,62.56
2019-02-04T20:36:39.027Z,66.03
2019-02-04T20:39:10.069Z,65.81
2019-02-04T20:41:39.485Z,61.27
2019-02-04T20:44:11.267Z,63.18
2019-02-04T20:46:40.513Z,64.43
2019-02-04T20:49:09.461Z,64.11
2019-02-04T20:51:38.711Z,62.30
2019-02-04T20:54:19.265Z,62.35
2019-02-04T20:56:38.344Z,63.03
2019-02-04T20:59:07.456Z,63.95
2019-02-04T21:01:36.878Z,62.23
2019-02-04T21:04:24.415Z,65.77
2019-02-04T21:06:56.203Z,61.99
2019-02-04T21:09:23.671Z,62.76
2019-02-04T21:11:52.515Z,60.62
2019-02-04T21:14:21.063Z,60.96
2019-02-04T21:16:49.388Z,61.58
2019-02-04T21:19:17.526Z,63.55
2019-02-04T21:21:45.892Z,64.11
2019-02-04T21:24:14.012Z,59.52
2019-02-04T21:26:42.918Z,60.23
2019-02-04T21:29:11.520Z,64.03
2019-02-04T21:31:39.894Z,59.38
2019-02-04T21:34:08.218Z,64.57
2019-02-04T21:36:36.402Z,64.22
2019-02-04T21:39:06.058Z,63.46
2019-02-04T21:41:34.845Z,64.51
2019-02-04T21:44:03.112Z,62.10
2019-02-04T21:46:31.256Z,61.64
2019-02-04T21:49:01.320Z,58.64
2019-02-04T21:51:29.494Z,65.29
2019-02-04T21:53:57.561Z,59.13
2019-02-04T21:56:25.667Z,61.70
2019-02-04T21:58:53.997Z,63.75
2019-02-04T22:01:22.330Z,61.04
2019-02-04T22:03:50.457Z,62.83
2019-02-04T22:06:18.595Z,60.67
2019-02-04T22:08:46.698Z,58.74
2019-02-04T22:11:14.845Z,64.05
2019-02-04T22:13:42.923Z,63.93
2019-02-04T22:16:11.256Z,64.70
2019-02-04T22:18:39.390Z,61.19
2019-02-04T22:21:07.621Z,59.76
2019-02-04T22:23:35.828Z,64.15
2019-02-04T22:26:03.908Z,59.38
2019-02-04T22:28:32.181Z,63.54
2019-02-04T22:31:00.541Z,58.70
2019-02-04T22:33:28.716Z,59.40
2019-02-04T22:35:56.821Z,58.96
2019-02-04T22:38:24.820Z,64.54
2019-02-04T22:40:52.902Z,62.35
2019-02-04T22:43:20.990Z,63.96
2019-02-04T22:45:49.038Z,59.31
2019-02-04T22:48:17.084Z,62.03
2019-02-04T22:50:45.100Z,59.93
2019-02-04T22:53:13.247Z,62.76
2019-02-04T22:55:41.269Z,61.30
2019-02-04T22:58:09.409Z,59.69
2019-02-04T23:01:02.595Z,63.09
2019-02-04T23:03:30.605Z,63.66
2019-02-04T23:05:58.923Z,61.82
2019-02-04T23:08:27.017Z,62.11
2019-02-04T23:10:55.031Z,65.75
2019-02-04T23:13:23.116Z,61.47
2019-02-04T23:15:54.105Z,62.11
2019-02-04T23:18:22.361Z,61.66
2019-02-04T23:20:50.379Z,63.10
2019-02-04T23:23:18.458Z,65.77
2019-02-04T23:25:46.429Z,65.86
2019-02-04T23:28:14.466Z,63.24
2019-02-04T23:30:44.232Z,66.48
2019-02-04T23:33:12.244Z,63.21
2019-02-04T23:35:40.242Z,66.10
2019-02-04T23:38:08.251Z,65.51
2019-02-04T23:40:36.247Z,61.69
2019-02-04T23:43:04.215Z,62.21
2019-02-04T23:45:32.228Z,62.77
2019-02-04T23:48:00.564Z,63.39
2019-02-04T23:50:28.547Z,63.08
2019-02-04T23:52:56.539Z,65.40
2019-02-04T23:55:24.534Z,65.79
2019-02-04T23:57:52.563Z,61.64
